| time (UTC) | temp C | wind direction | speed KPH | gust KPH | rain 1hr cm | rain 24hr cm | rain mn cm | humidity % | barometer mb |
| 20260507174533 | 9 | 171 | 6.4 | 24.1 | 0.03 | 1.30 | 1.30 | 95 | 1002.9 |
| 20260507174015 | 9 | 236 | 11.3 | 24.1 | 0.03 | 1.30 | 1.30 | 96 | 1002.9 |
| 20260507173519 | 9 | 201 | 9.7 | 22.5 | 0.03 | 1.30 | 1.30 | 95 | 1002.9 |
| 20260507173036 | 9 | 160 | 6.4 | 22.5 | 0.03 | 1.30 | 1.30 | 96 | 1003.0 |
| 20260507172516 | 9 | 217 | 11.3 | 22.5 | 0.03 | 1.30 | 1.30 | 96 | 1003.1 |
| 20260507172015 | 8 | 223 | 9.7 | 20.9 | 0.03 | 1.30 | 1.30 | 96 | 1003.2 |
| 20260507171529 | 8 | 223 | 9.7 | 22.5 | 0.03 | 1.30 | 1.30 | 96 | 1003.2 |
| 20260507171015 | 7 | 198 | 11.3 | 22.5 | 0.03 | 1.30 | 1.30 | 96 | 1003.1 |
| 20260507170513 | 7 | 229 | 6.4 | 25.7 | 0.03 | 1.30 | 1.30 | 96 | 1002.5 |
| 20260507170045 | 7 | 210 | 6.4 | 25.7 | 0.00 | 1.27 | 1.27 | 96 | 1002.7 |
| 20260507165513 | 7 | 169 | 8.0 | 25.7 | 0.00 | 1.27 | 1.27 | 95 | 1002.9 |
| 20260507165012 | 7 | 195 | 11.3 | 20.9 | 0.00 | 1.27 | 1.27 | 96 | 1003.3 |
| 20260507164531 | 7 | 196 | 6.4 | 20.9 | 0.00 | 1.27 | 1.27 | 96 | 1003.1 |
| 20260507164015 | 7 | 173 | 8.0 | 24.1 | 0.00 | 1.27 | 1.27 | 96 | 1003.0 |
| 20260507163514 | 7 | 206 | 11.3 | 27.4 | 0.03 | 1.27 | 1.27 | 96 | 1003.5 |
| 20260507163030 | 6 | 185 | 9.7 | 27.4 | 0.03 | 1.27 | 1.27 | 96 | 1003.6 |
| 20260507162513 | 6 | 179 | 12.9 | 29.0 | 0.03 | 1.27 | 1.27 | 96 | 1003.7 |
| 20260507162014 | 6 | 187 | 11.3 | 29.0 | 0.03 | 1.27 | 1.27 | 95 | 1003.9 |
| 20260507161530 | 6 | 212 | 11.3 | 29.0 | 0.03 | 1.27 | 1.27 | 95 | 1003.6 |
| 20260507161016 | 6 | 188 | 9.7 | 25.7 | 0.05 | 1.27 | 1.27 | 95 | 1003.2 |
| 20260507160516 | 7 | 195 | 11.3 | 20.9 | 0.08 | 1.27 | 1.27 | 95 | 1003.1 |
| 20260507160032 | 7 | 195 | 8.0 | 20.9 | 0.10 | 1.27 | 1.27 | 95 | 1003.0 |
| 20260507155513 | 7 | 252 | 4.8 | 14.5 | 0.13 | 1.27 | 1.27 | 95 | 1002.7 |
| 20260507155012 | 7 | 220 | 4.8 | 14.5 | 0.15 | 1.27 | 1.27 | 95 | 1003.3 |
| 20260507154532 | 7 | 200 | 6.4 | 20.9 | 0.18 | 1.27 | 1.27 | 95 | 1003.0 |
| 20260507154019 | 7 | 181 | 8.0 | 24.1 | 0.20 | 1.27 | 1.27 | 95 | 1003.7 |
| 20260507153514 | 7 | 211 | 8.0 | 24.1 | 0.20 | 1.24 | 1.24 | 95 | 1003.9 |
| 20260507153031 | 7 | 202 | 11.3 | 20.9 | 0.23 | 1.24 | 1.24 | 95 | 1003.6 |
| 20260507152515 | 7 | 220 | 6.4 | 19.3 | 0.25 | 1.24 | 1.24 | 96 | 1003.5 |
| 20260507152015 | 7 | 173 | 11.3 | 19.3 | 0.28 | 1.24 | 1.24 | 95 | 1002.7 |
| 20260507151533 | 7 | 197 | 8.0 | 22.5 | 0.28 | 1.22 | 1.22 | 95 | 1003.9 |
| 20260507151018 | 7 | 139 | 6.4 | 22.5 | 0.33 | 1.22 | 1.22 | 95 | 1003.9 |
| 20260507150516 | 7 | 158 | 11.3 | 22.5 | 0.33 | 1.19 | 1.19 | 95 | 1003.9 |
| 20260507150030 | 7 | 179 | 4.8 | 19.3 | 0.36 | 1.17 | 1.17 | 95 | 1003.9 |
| 20260507145515 | 7 | 206 | 6.4 | 19.3 | 0.38 | 1.14 | 1.14 | 95 | 1003.7 |
| 20260507145016 | 7 | 236 | 6.4 | 19.3 | 0.41 | 1.12 | 1.12 | 95 | 1003.6 |
| 20260507144530 | 7 | 191 | 4.8 | 17.7 | 0.43 | 1.09 | 1.09 | 95 | 1003.7 |
| 20260507144014 | 7 | 196 | 8.0 | 17.7 | 0.41 | 1.04 | 1.04 | 95 | 1003.6 |
| 20260507143513 | 7 | 195 | 6.4 | 12.9 | 0.43 | 1.04 | 1.04 | 95 | 1003.5 |
| 20260507143031 | 7 | 195 | 6.4 | 12.9 | 0.46 | 1.02 | 1.02 | 95 | 1003.4 |
| 20260507142518 | 7 | 180 | 6.4 | 14.5 | 0.46 | 0.99 | 0.99 | 94 | 1003.6 |
| 20260507142015 | 7 | 192 | 4.8 | 14.5 | 0.48 | 0.97 | 0.97 | 94 | 1003.7 |
| 20260507141529 | 8 | 263 | 4.8 | 12.9 | 0.48 | 0.94 | 0.94 | 94 | 1003.6 |
| 20260507141015 | 8 | 188 | 4.8 | 12.9 | 0.46 | 0.89 | 0.89 | 94 | 1004.0 |
| 20260507140516 | 9 | 245 | 3.2 | 8.0 | 0.46 | 0.86 | 0.86 | 95 | 1003.9 |
| 20260507140036 | 9 | 203 | 3.2 | 9.7 | 0.46 | 0.81 | 0.81 | 95 | 1003.8 |
| 20260507135514 | 9 | 221 | 3.2 | 17.7 | 0.46 | 0.76 | 0.76 | 95 | 1004.0 |
| 20260507135016 | 9 | 258 | 4.8 | 17.7 | 0.43 | 0.71 | 0.71 | 94 | 1003.8 |
| 20260507134530 | 10 | 279 | 8.0 | 17.7 | 0.38 | 0.66 | 0.66 | 96 | 1003.7 |
| 20260507134014 | 10 | 210 | 4.8 | 12.9 | 0.36 | 0.64 | 0.64 | 96 | 1003.3 |
| 20260507133513 | 8 | 131 | 6.4 | 12.9 | 0.30 | 0.58 | 0.58 | 96 | 1003.5 |
| 20260507133037 | 8 | 126 | 6.4 | 22.5 | 0.28 | 0.56 | 0.56 | 96 | 1003.9 |
| 20260507132512 | 7 | 123 | 8.0 | 24.1 | 0.23 | 0.51 | 0.51 | 95 | 1004.2 |
| 20260507132014 | 7 | 167 | 9.7 | 24.1 | 0.20 | 0.48 | 0.48 | 95 | 1004.6 |
| 20260507131538 | 7 | 206 | 8.0 | 22.5 | 0.18 | 0.46 | 0.46 | 95 | 1004.8 |
| 20260507131014 | 7 | 198 | 8.0 | 25.7 | 0.15 | 0.43 | 0.43 | 94 | 1004.8 |
| 20260507130517 | 7 | 195 | 11.3 | 25.7 | 0.10 | 0.38 | 0.38 | 94 | 1005.0 |
| 20260507130036 | 7 | 149 | 8.0 | 22.5 | 0.05 | 0.33 | 0.33 | 94 | 1005.0 |
| 20260507125515 | 7 | 216 | 9.7 | 22.5 | 0.03 | 0.30 | 0.30 | 94 | 1005.0 |
| 20260507125014 | 7 | 202 | 9.7 | 22.5 | 0.00 | 0.28 | 0.28 | 94 | 1004.8 |
| 20260507124532 | 7 | 141 | 6.4 | 20.9 | 0.00 | 0.28 | 0.28 | 94 | 1004.7 |
| 20260507124016 | 7 | 152 | 6.4 | 19.3 | 0.00 | 0.28 | 0.28 | 94 | 1004.7 |
| 20260507123514 | 7 | 241 | 8.0 | 24.1 | 0.00 | 0.28 | 0.28 | 94 | 1004.7 |
| 20260507123034 | 7 | 197 | 6.4 | 24.1 | 0.03 | 0.28 | 0.28 | 94 | 1004.6 |
| 20260507122518 | 7 | 189 | 6.4 | 22.5 | 0.03 | 0.28 | 0.28 | 93 | 1004.5 |
| 20260507122018 | 8 | 214 | 6.4 | 17.7 | 0.05 | 0.28 | 0.28 | 93 | 1004.6 |
| 20260507121533 | 8 | 201 | 4.8 | 17.7 | 0.08 | 0.28 | 0.28 | 93 | 1004.3 |
| 20260507121015 | 8 | 197 | 4.8 | 16.1 | 0.08 | 0.28 | 0.28 | 93 | 1003.9 |
| 20260507120514 | 8 | 191 | 4.8 | 16.1 | 0.08 | 0.28 | 0.28 | 92 | 1004.4 |
| 20260507120033 | 8 | 214 | 6.4 | 16.1 | 0.08 | 0.28 | 0.28 | 93 | 1004.5 |
| 20260507115517 | 8 | 220 | 6.4 | 16.1 | 0.08 | 0.28 | 0.28 | 92 | 1004.4 |
| 20260507115013 | 9 | 216 | 6.4 | 16.1 | 0.08 | 0.28 | 0.28 | 92 | 1004.2 |
| 20260507114530 | 9 | 240 | 4.8 | 12.9 | 0.08 | 0.28 | 0.28 | 92 | 1004.2 |
| 20260507114014 | 9 | 233 | 4.8 | 12.9 | 0.08 | 0.28 | 0.28 | 93 | 1004.0 |
| 20260507113514 | 10 | 196 | 3.2 | 12.9 | 0.08 | 0.28 | 0.28 | 93 | 1004.3 |
| 20260507113031 | 10 | 260 | 3.2 | 9.7 | 0.05 | 0.25 | 0.25 | 93 | 1004.4 |
| 20260507112518 | 9 | 177 | 4.8 | 17.7 | 0.05 | 0.25 | 0.25 | 93 | 1004.2 |
| 20260507112015 | 9 | 167 | 6.4 | 20.9 | 0.03 | 0.23 | 0.23 | 92 | 1004.4 |
| 20260507111532 | 9 | 187 | 8.0 | 20.9 | 0.00 | 0.20 | 0.20 | 91 | 1004.8 |
| 20260507111015 | 9 | 203 | 6.4 | 19.3 | 0.00 | 0.20 | 0.20 | 91 | 1004.9 |
| 20260507110513 | 9 | 184 | 4.8 | 19.3 | 0.00 | 0.20 | 0.20 | 90 | 1004.4 |
| 20260507110032 | 10 | 204 | 4.8 | 14.5 | 0.00 | 0.20 | 0.20 | 88 | 1004.2 |
| 20260507105517 | 11 | 197 | 4.8 | 16.1 | 0.00 | 0.20 | 0.20 | 87 | 1004.4 |
| 20260507105017 | 12 | 227 | 4.8 | 17.7 | 0.00 | 0.20 | 0.20 | 89 | 1004.3 |
| 20260507104545 | 13 | 160 | 9.7 | 17.7 | 0.00 | 0.20 | 0.20 | 92 | 1003.8 |
| 20260507104017 | 13 | 196 | 6.4 | 17.7 | 0.00 | 0.20 | 0.20 | 92 | 1003.7 |
| 20260507103516 | 13 | 181 | 9.7 | 20.9 | 0.00 | 0.20 | 0.20 | 92 | 1003.7 |
| 20260507103053 | 13 | 168 | 8.0 | 20.9 | 0.00 | 0.20 | 0.20 | 92 | 1003.8 |
| 20260507102517 | 13 | 163 | 6.4 | 16.1 | 0.00 | 0.20 | 0.20 | 92 | 1003.7 |
| 20260507102017 | 13 | 166 | 6.4 | 22.5 | 0.00 | 0.20 | 0.20 | 92 | 1003.5 |
| 20260507101538 | 13 | 189 | 8.0 | 22.5 | 0.00 | 0.20 | 0.20 | 92 | 1003.4 |
| 20260507101020 | 13 | 143 | 9.7 | 22.5 | 0.00 | 0.20 | 0.20 | 92 | 1003.6 |
| 20260507100515 | 13 | 136 | 11.3 | 22.5 | 0.03 | 0.20 | 0.20 | 92 | 1003.8 |
| 20260507100033 | 13 | 181 | 11.3 | 25.7 | 0.03 | 0.20 | 0.20 | 92 | 1004.0 |
| 20260507095517 | 13 | 171 | 12.9 | 29.0 | 0.03 | 0.20 | 0.20 | 92 | 1003.9 |
| 20260507095016 | 13 | 163 | 12.9 | 32.2 | 0.03 | 0.20 | 0.20 | 92 | 1004.1 |
| 20260507094537 | 13 | 168 | 14.5 | 32.2 | 0.03 | 0.20 | 0.20 | 92 | 1004.2 |
| 20260507094017 | 13 | 193 | 11.3 | 30.6 | 0.03 | 0.20 | 0.20 | 92 | 1004.2 |
| 20260507093518 | 13 | 158 | 8.0 | 30.6 | 0.05 | 0.20 | 0.20 | 92 | 1004.1 |
| 20260507093037 | 13 | 167 | 9.7 | 35.4 | 0.05 | 0.20 | 0.20 | 92 | 1004.2 |
| 20260507092517 | 13 | 173 | 11.3 | 35.4 | 0.05 | 0.20 | 0.20 | 92 | 1004.0 |
| 20260507092016 | 13 | 158 | 9.7 | 35.4 | 0.05 | 0.20 | 0.20 | 92 | 1003.7 |
| 20260507091539 | 13 | 147 | 11.3 | 25.7 | 0.05 | 0.20 | 0.20 | 92 | 1004.0 |
| 20260507091018 | 13 | 205 | 9.7 | 25.7 | 0.03 | 0.18 | 0.18 | 92 | 1004.4 |
| 20260507090515 | 13 | 183 | 9.7 | 20.9 | 0.03 | 0.18 | 0.18 | 91 | 1004.2 |
| 20260507090036 | 13 | 185 | 8.0 | 24.1 | 0.03 | 0.18 | 0.18 | 91 | 1004.2 |
| 20260507085514 | 13 | 146 | 6.4 | 29.0 | 0.03 | 0.18 | 0.18 | 91 | 1004.0 |
| 20260507085017 | 13 | 150 | 12.9 | 29.0 | 0.03 | 0.18 | 0.18 | 90 | 1003.9 |
| 20260507084541 | 13 | 195 | 14.5 | 25.7 | 0.03 | 0.18 | 0.18 | 90 | 1004.0 |
| 20260507084015 | 14 | 168 | 11.3 | 24.1 | 0.03 | 0.18 | 0.18 | 90 | 1004.0 |
| 20260507083519 | 14 | 171 | 12.9 | 33.8 | 0.00 | 0.15 | 0.15 | 89 | 1004.0 |
| 20260507083033 | 14 | 204 | 12.9 | 33.8 | 0.00 | 0.15 | 0.15 | 89 | 1004.0 |
| 20260507082517 | 14 | 162 | 14.5 | 35.4 | 0.00 | 0.15 | 0.15 | 88 | 1003.7 |
| 20260507082016 | 14 | 156 | 11.3 | 35.4 | 0.00 | 0.15 | 0.15 | 88 | 1003.6 |
| 20260507081530 | 14 | 156 | 16.1 | 35.4 | 0.00 | 0.15 | 0.15 | 88 | 1003.7 |
| 20260507081021 | 14 | 175 | 16.1 | 35.4 | 0.00 | 0.15 | 0.15 | 88 | 1003.5 |
| 20260507080516 | 14 | 127 | 14.5 | 37.0 | 0.00 | 0.15 | 0.15 | 88 | 1003.5 |
| 20260507080046 | 14 | 173 | 17.7 | 46.7 | 0.00 | 0.15 | 0.15 | 88 | 1003.4 |
| 20260507075514 | 14 | 156 | 20.9 | 46.7 | 0.00 | 0.15 | 0.15 | 88 | 1003.4 |
| 20260507075014 | 14 | 145 | 19.3 | 43.5 | 0.00 | 0.15 | 0.15 | 88 | 1003.1 |
| 20260507074530 | 14 | 150 | 22.5 | 43.5 | 0.00 | 0.15 | 0.15 | 89 | 1003.3 |
| 20260507074015 | 14 | 137 | 19.3 | 40.2 | 0.00 | 0.15 | 0.15 | 89 | 1003.4 |
| 20260507073516 | 14 | 127 | 19.3 | 45.1 | 0.00 | 0.15 | 0.15 | 88 | 1003.5 |
| 20260507073030 | 14 | 162 | 22.5 | 45.1 | 0.00 | 0.15 | 0.15 | 88 | 1003.2 |
| 20260507072513 | 14 | 138 | 20.9 | 45.1 | 0.00 | 0.15 | 0.15 | 88 | 1003.5 |
| 20260507072013 | 14 | 153 | 17.7 | 38.6 | 0.00 | 0.15 | 0.15 | 87 | 1003.8 |
| 20260507071531 | 14 | 160 | 19.3 | 45.1 | 0.00 | 0.15 | 0.15 | 87 | 1004.3 |
| 20260507071015 | 14 | 156 | 19.3 | 45.1 | 0.00 | 0.15 | 0.15 | 87 | 1004.4 |
| 20260507070515 | 14 | 185 | 14.5 | 41.8 | 0.00 | 0.15 | 0.15 | 87 | 1004.6 |
| 20260507070046 | 14 | 155 | 25.7 | 45.1 | 0.00 | 0.15 | 0.15 | 87 | 1004.7 |
| 20260507065512 | 15 | 152 | 20.9 | 45.1 | 0.00 | 0.15 | 0.15 | 87 | 1004.7 |
| 20260507065014 | 15 | 143 | 22.5 | 38.6 | 0.00 | 0.15 | 0.15 | 87 | 1004.7 |
| 20260507064532 | 15 | 131 | 14.5 | 38.6 | 0.00 | 0.15 | 0.15 | 88 | 1004.9 |
| 20260507064017 | 14 | 185 | 9.7 | 32.2 | 0.00 | 0.15 | 0.15 | 88 | 1005.1 |
| 20260507063515 | 14 | 175 | 16.1 | 32.2 | 0.03 | 0.15 | 0.15 | 88 | 1005.2 |
| 20260507063035 | 14 | 139 | 9.7 | 33.8 | 0.03 | 0.15 | 0.15 | 89 | 1005.5 |
| 20260507062514 | 14 | 162 | 14.5 | 33.8 | 0.03 | 0.15 | 0.15 | 89 | 1005.4 |
| 20260507062014 | 14 | 149 | 12.9 | 27.4 | 0.03 | 0.15 | 0.15 | 89 | 1005.6 |
| 20260507061532 | 14 | 150 | 9.7 | 30.6 | 0.03 | 0.15 | 0.15 | 89 | 1005.7 |
| 20260507061014 | 14 | 162 | 11.3 | 30.6 | 0.05 | 0.15 | 0.15 | 89 | 1005.7 |
| 20260507060514 | 14 | 166 | 12.9 | 30.6 | 0.05 | 0.15 | 0.15 | 90 | 1005.6 |
| 20260507060033 | 14 | 135 | 9.7 | 24.1 | 0.05 | 0.15 | 0.15 | 89 | 1005.7 |
| 20260507055515 | 14 | 156 | 14.5 | 27.4 | 0.05 | 0.15 | 0.15 | 89 | 1006.0 |
| 20260507055014 | 14 | 146 | 11.3 | 29.0 | 0.05 | 0.15 | 0.15 | 90 | 1006.2 |
| 20260507054532 | 14 | 166 | 9.7 | 32.2 | 0.05 | 0.15 | 0.15 | 90 | 1006.3 |
| 20260507054019 | 14 | 156 | 16.1 | 32.2 | 0.05 | 0.15 | 0.15 | 90 | 1006.4 |
| 20260507053515 | 14 | 121 | 12.9 | 25.7 | 0.05 | 0.13 | 0.13 | 90 | 1006.6 |
| 20260507053033 | 14 | 135 | 11.3 | 25.7 | 0.08 | 0.13 | 0.13 | 90 | 1006.9 |
| 20260507052514 | 14 | 162 | 8.0 | 25.7 | 0.10 | 0.13 | 0.13 | 90 | 1007.0 |
| 20260507052016 | 14 | 146 | 9.7 | 24.1 | 0.10 | 0.13 | 0.13 | 90 | 1007.1 |
| 20260507051532 | 13 | 166 | 11.3 | 27.4 | 0.13 | 0.13 | 0.13 | 90 | 1007.1 |
| 20260507051014 | 13 | 141 | 12.9 | 27.4 | 0.10 | 0.10 | 0.10 | 90 | 1007.3 |
| 20260507050514 | 13 | 125 | 14.5 | 27.4 | 0.10 | 0.10 | 0.10 | 89 | 1007.4 |
| 20260507050041 | 13 | 141 | 9.7 | 32.2 | 0.10 | 0.10 | 0.10 | 89 | 1007.5 |
| 20260507045514 | 13 | 131 | 9.7 | 32.2 | 0.10 | 0.10 | 0.10 | 89 | 1007.7 |
| 20260507045015 | 13 | 163 | 12.9 | 32.2 | 0.10 | 0.10 | 0.10 | 88 | 1007.7 |
| 20260507044530 | 14 | 150 | 14.5 | 32.2 | 0.10 | 0.10 | 0.10 | 88 | 1008.0 |
| 20260507044015 | 14 | 125 | 14.5 | 32.2 | 0.10 | 0.10 | 0.10 | 87 | 1008.3 |
| 20260507043515 | 14 | 160 | 14.5 | 33.8 | 0.08 | 0.08 | 0.08 | 87 | 1008.5 |
| 20260507043032 | 14 | 130 | 14.5 | 33.8 | 0.05 | 0.05 | 0.05 | 86 | 1008.6 |
| 20260507042513 | 15 | 119 | 12.9 | 30.6 | 0.03 | 0.03 | 0.03 | 85 | 1008.5 |
| 20260507042015 | 15 | 161 | 12.9 | 30.6 | 0.03 | 0.03 | 0.03 | 84 | 1008.8 |
| 20260507041533 | 15 | 202 | 14.5 | 30.6 | 0.00 | 0.00 | 0.00 | 83 | 1009.0 |
| 20260507041014 | 15 | 160 | 16.1 | 32.2 | 0.00 | 0.00 | 0.00 | 82 | 1009.1 |
| 20260507040515 | 15 | 162 | 17.7 | 32.2 | 0.00 | 0.00 | 0.00 | 81 | 1009.4 |
| 20260507040035 | 15 | 136 | 14.5 | 32.2 | 0.00 | 0.00 | 0.00 | 81 | 1009.6 |
| 20260507035515 | 15 | 108 | 12.9 | 33.8 | 0.00 | 0.00 | 0.00 | 81 | 1009.7 |
| 20260507035017 | 15 | 150 | 14.5 | 33.8 | 0.00 | 0.00 | 0.00 | 81 | 1009.6 |
| 20260507034530 | 15 | 143 | 17.7 | 33.8 | 0.00 | 0.00 | 0.00 | 81 | 1009.5 |
| 20260507034013 | 15 | 141 | 17.7 | 33.8 | 0.00 | 0.00 | 0.00 | 81 | 1009.6 |
| 20260507033514 | 15 | 141 | 14.5 | 33.8 | 0.00 | 0.00 | 0.00 | 81 | 1009.6 |
| 20260507033030 | 15 | 143 | 12.9 | 33.8 | 0.00 | 0.00 | 0.00 | 81 | 1009.5 |
| 20260507032515 | 15 | 153 | 17.7 | 33.8 | 0.00 | 0.00 | 0.00 | 81 | 1009.6 |
| 20260507032014 | 15 | 138 | 14.5 | 30.6 | 0.00 | 0.00 | 0.00 | 81 | 1009.8 |
| 20260507031532 | 15 | 130 | 16.1 | 27.4 | 0.00 | 0.00 | 0.00 | 81 | 1009.9 |
| 20260507031020 | 15 | 160 | 14.5 | 30.6 | 0.00 | 0.00 | 0.00 | 80 | 1010.1 |
| 20260507030512 | 15 | 152 | 14.5 | 33.8 | 0.00 | 0.00 | 0.00 | 80 | 1010.4 |
| 20260507030033 | 15 | 165 | 12.9 | 33.8 | 0.00 | 0.00 | 0.00 | 80 | 1010.5 |
| 20260507025514 | 15 | 148 | 17.7 | 32.2 | 0.00 | 0.00 | 0.00 | 80 | 1010.4 |
| 20260507025015 | 15 | 174 | 12.9 | 27.4 | 0.00 | 0.00 | 0.00 | 80 | 1010.6 |
| 20260507024535 | 15 | 137 | 16.1 | 25.7 | 0.00 | 0.00 | 0.00 | 80 | 1010.8 |
| 20260507024014 | 15 | 139 | 14.5 | 25.7 | 0.00 | 0.00 | 0.00 | 80 | 1010.9 |
| 20260507023515 | 15 | 166 | 11.3 | 24.1 | 0.00 | 0.00 | 0.00 | 80 | 1011.0 |
| 20260507023032 | 15 | 136 | 12.9 | 25.7 | 0.00 | 0.00 | 0.00 | 80 | 1011.1 |
| 20260507022514 | 15 | 156 | 9.7 | 25.7 | 0.00 | 0.00 | 0.00 | 80 | 1011.2 |
| 20260507022016 | 15 | 127 | 12.9 | 25.7 | 0.00 | 0.00 | 0.00 | 80 | 1011.3 |
| 20260507021536 | 15 | 168 | 12.9 | 29.0 | 0.00 | 0.00 | 0.00 | 80 | 1011.3 |
| 20260507021016 | 15 | 168 | 12.9 | 29.0 | 0.00 | 0.00 | 0.00 | 80 | 1011.3 |
| 20260507020514 | 15 | 204 | 14.5 | 29.0 | 0.00 | 0.00 | 0.00 | 80 | 1011.1 |
| 20260507020031 | 16 | 164 | 11.3 | 30.6 | 0.00 | 0.00 | 0.00 | 80 | 1011.0 |
| 20260507015512 | 16 | 125 | 16.1 | 30.6 | 0.00 | 0.00 | 0.00 | 79 | 1010.6 |
| 20260507015015 | 16 | 132 | 17.7 | 30.6 | 0.00 | 0.00 | 0.00 | 78 | 1010.8 |
| 20260507014531 | 16 | 139 | 12.9 | 27.4 | 0.00 | 0.00 | 0.00 | 77 | 1011.2 |
| 20260507014012 | 16 | 142 | 11.3 | 32.2 | 0.00 | 0.00 | 0.00 | 77 | 1011.1 |
| 20260507013514 | 16 | 150 | 9.7 | 32.2 | 0.00 | 0.00 | 0.00 | 77 | 1011.4 |
| 20260507013033 | 16 | 133 | 14.5 | 32.2 | 0.00 | 0.00 | 0.00 | 77 | 1011.4 |
| 20260507012513 | 16 | 121 | 8.0 | 19.3 | 0.00 | 0.00 | 0.00 | 76 | 1011.7 |
| 20260507012016 | 17 | 123 | 8.0 | 33.8 | 0.00 | 0.00 | 0.00 | 76 | 1011.8 |
| 20260507011541 | 17 | 181 | 12.9 | 33.8 | 0.00 | 0.00 | 0.00 | 76 | 1012.5 |
| 20260507011015 | 17 | 159 | 16.1 | 33.8 | 0.00 | 0.00 | 0.00 | 76 | 1012.7 |
| 20260507010518 | 17 | 156 | 11.3 | 37.0 | 0.00 | 0.00 | 0.00 | 76 | 1012.7 |
| 20260507010041 | 17 | 177 | 16.1 | 37.0 | 0.00 | 0.00 | 0.00 | 75 | 1012.3 |
| 20260507005515 | 17 | 147 | 17.7 | 35.4 | 0.00 | 0.00 | 0.00 | 75 | 1012.4 |
| 20260507005012 | 17 | 158 | 16.1 | 37.0 | 0.00 | 0.00 | 0.00 | 75 | 1012.3 |
| 20260507004531 | 17 | 142 | 19.3 | 37.0 | 0.00 | 0.00 | 0.00 | 75 | 1012.5 |
| 20260507004016 | 17 | 162 | 19.3 | 40.2 | 0.00 | 0.00 | 0.00 | 75 | 1012.4 |
| 20260507003514 | 17 | 169 | 19.3 | 43.5 | 0.00 | 0.00 | 0.00 | 75 | 1012.3 |
| 20260507003031 | 17 | 149 | 19.3 | 43.5 | 0.00 | 0.00 | 0.00 | 75 | 1012.5 |
| 20260507002513 | 17 | 129 | 14.5 | 32.2 | 0.00 | 0.00 | 0.00 | 75 | 1012.6 |
| 20260507002014 | 17 | 176 | 12.9 | 32.2 | 0.00 | 0.00 | 0.00 | 75 | 1012.9 |
| 20260507001549 | 17 | 181 | 11.3 | 33.8 | 0.00 | 0.00 | 0.00 | 75 | 1012.8 |
| 20260507001013 | 17 | 148 | 14.5 | 40.2 | 0.00 | 0.00 | 0.00 | 75 | 1012.8 |
| 20260507000513 | 17 | 170 | 19.3 | 40.2 | 0.00 | 0.00 | 0.00 | 75 | 1012.8 |
| 20260507000037 | 17 | 164 | 11.3 | 40.2 | 0.00 | 0.00 | 0.00 | 74 | 1012.7 |
| 20260506235514 | 17 | 165 | 16.1 | 40.2 | 0.00 | 0.00 | 0.00 | 74 | 1012.8 |
| 20260506235013 | 17 | 130 | 16.1 | 37.0 | 0.00 | 0.00 | 0.00 | 74 | 1012.8 |
| 20260506234536 | 17 | 168 | 17.7 | 37.0 | 0.00 | 0.00 | 0.00 | 74 | 1012.9 |
| 20260506234015 | 17 | 165 | 16.1 | 45.1 | 0.00 | 0.00 | 0.00 | 74 | 1012.9 |
| 20260506233516 | 17 | 173 | 19.3 | 45.1 | 0.00 | 0.00 | 0.00 | 73 | 1012.9 |
| 20260506233030 | 17 | 163 | 12.9 | 45.1 | 0.00 | 0.00 | 0.00 | 73 | 1012.9 |
| 20260506232515 | 17 | 168 | 16.1 | 33.8 | 0.00 | 0.00 | 0.00 | 73 | 1012.8 |
| 20260506232015 | 17 | 160 | 16.1 | 35.4 | 0.00 | 0.00 | 0.00 | 73 | 1012.7 |
| 20260506231533 | 17 | 179 | 12.9 | 37.0 | 0.00 | 0.00 | 0.00 | 72 | 1012.7 |
| 20260506231013 | 17 | 164 | 12.9 | 38.6 | 0.00 | 0.00 | 0.00 | 71 | 1012.6 |
| 20260506230514 | 17 | 185 | 20.9 | 38.6 | 0.00 | 0.00 | 0.00 | 71 | 1012.5 |
| 20260506230033 | 18 | 156 | 16.1 | 38.6 | 0.00 | 0.00 | 0.00 | 70 | 1012.7 |
| 20260506225516 | 18 | 148 | 14.5 | 33.8 | 0.00 | 0.00 | 0.00 | 70 | 1012.7 |
| 20260506225016 | 18 | 112 | 17.7 | 33.8 | 0.00 | 0.00 | 0.00 | 69 | 1012.8 |
| 20260506224533 | 18 | 141 | 11.3 | 27.4 | 0.00 | 0.00 | 0.00 | 69 | 1012.7 |
| 20260506224014 | 18 | 139 | 11.3 | 29.0 | 0.00 | 0.00 | 0.00 | 68 | 1012.6 |
| 20260506223513 | 18 | 127 | 11.3 | 40.2 | 0.00 | 0.00 | 0.00 | 68 | 1012.7 |
| 20260506223032 | 18 | 216 | 19.3 | 48.3 | 0.00 | 0.00 | 0.00 | 67 | 1012.8 |
| 20260506222514 | 18 | 148 | 16.1 | 49.9 | 0.00 | 0.00 | 0.00 | 66 | 1012.7 |
| 20260506222016 | 18 | 171 | 19.3 | 49.9 | 0.00 | 0.00 | 0.00 | 66 | 1012.6 |
| 20260506221536 | 18 | 138 | 17.7 | 45.1 | 0.00 | 0.00 | 0.00 | 65 | 1012.8 |
| 20260506221013 | 18 | 253 | 16.1 | 40.2 | 0.00 | 0.00 | 0.00 | 65 | 1012.5 |
| 20260506220514 | 18 | 180 | 16.1 | 32.2 | 0.00 | 0.00 | 0.00 | 65 | 1012.5 |
| 20260506220032 | 19 | 166 | 12.9 | 37.0 | 0.00 | 0.00 | 0.00 | 65 | 1012.7 |
| 20260506215514 | 19 | 187 | 8.0 | 38.6 | 0.00 | 0.00 | 0.00 | 64 | 1012.7 |
| 20260506215014 | 19 | 208 | 16.1 | 38.6 | 0.00 | 0.00 | 0.00 | 63 | 1012.7 |
| 20260506214529 | 19 | 167 | 16.1 | 41.8 | 0.00 | 0.00 | 0.00 | 63 | 1012.9 |
| 20260506214014 | 19 | 200 | 14.5 | 43.5 | 0.00 | 0.00 | 0.00 | 63 | 1012.9 |
| 20260506213515 | 19 | 153 | 19.3 | 43.5 | 0.00 | 0.00 | 0.00 | 62 | 1013.0 |
| 20260506213040 | 20 | 190 | 22.5 | 43.5 | 0.00 | 0.00 | 0.00 | 62 | 1013.2 |
| 20260506212514 | 20 | 220 | 12.9 | 37.0 | 0.00 | 0.00 | 0.00 | 63 | 1013.0 |
| 20260506212014 | 20 | 156 | 14.5 | 38.6 | 0.00 | 0.00 | 0.00 | 63 | 1013.1 |
| 20260506211540 | 20 | 206 | 19.3 | 41.8 | 0.00 | 0.00 | 0.00 | 62 | 1013.1 |
| 20260506211014 | 20 | 171 | 17.7 | 41.8 | 0.00 | 0.00 | 0.00 | 63 | 1012.9 |
| 20260506210514 | 20 | 143 | 19.3 | 51.5 | 0.00 | 0.00 | 0.00 | 62 | 1012.9 |
| 20260506210040 | 20 | 182 | 24.1 | 51.5 | 0.00 | 0.00 | 0.00 | 62 | 1013.0 |
| 20260506205514 | 20 | 201 | 20.9 | 37.0 | 0.00 | 0.00 | 0.00 | 63 | 1012.8 |
| 20260506205015 | 20 | 193 | 16.1 | 43.5 | 0.00 | 0.00 | 0.00 | 63 | 1012.8 |
| 20260506204533 | 20 | 162 | 17.7 | 57.9 | 0.00 | 0.00 | 0.00 | 62 | 1012.7 |
| 20260506204013 | 20 | 134 | 25.7 | 57.9 | 0.00 | 0.00 | 0.00 | 62 | 1012.8 |
| 20260506203514 | 20 | 190 | 20.9 | 45.1 | 0.00 | 0.00 | 0.00 | 61 | 1012.9 |
| 20260506203032 | 20 | 138 | 17.7 | 45.1 | 0.00 | 0.00 | 0.00 | 61 | 1012.7 |
| 20260506202514 | 20 | 189 | 16.1 | 43.5 | 0.00 | 0.00 | 0.00 | 60 | 1012.8 |
| 20260506202017 | 20 | 168 | 20.9 | 43.5 | 0.00 | 0.00 | 0.00 | 59 | 1012.6 |
| 20260506201536 | 21 | 195 | 17.7 | 37.0 | 0.00 | 0.00 | 0.00 | 60 | 1012.5 |
| 20260506201014 | 21 | 197 | 17.7 | 35.4 | 0.00 | 0.00 | 0.00 | 60 | 1012.5 |
| 20260506200513 | 21 | 181 | 19.3 | 49.9 | 0.00 | 0.00 | 0.00 | 61 | 1012.5 |
| 20260506200033 | 20 | 145 | 14.5 | 49.9 | 0.00 | 0.00 | 0.00 | 61 | 1012.5 |
| 20260506195517 | 21 | 181 | 19.3 | 49.9 | 0.00 | 0.00 | 0.00 | 60 | 1012.6 |
| 20260506195016 | 21 | 81 | 17.7 | 40.2 | 0.00 | 0.00 | 0.00 | 60 | 1012.6 |
| 20260506194530 | 21 | 212 | 19.3 | 40.2 | 0.00 | 0.00 | 0.00 | 60 | 1012.5 |
| 20260506194015 | 21 | 180 | 20.9 | 46.7 | 0.00 | 0.00 | 0.00 | 60 | 1012.5 |
| 20260506193514 | 21 | 191 | 24.1 | 56.3 | 0.00 | 0.00 | 0.00 | 60 | 1012.5 |
| 20260506193042 | 21 | 152 | 30.6 | 56.3 | 0.00 | 0.00 | 0.00 | 59 | 1012.5 |
| 20260506192517 | 21 | 129 | 14.5 | 43.5 | 0.00 | 0.00 | 0.00 | 59 | 1012.5 |
| 20260506192015 | 21 | 180 | 20.9 | 40.2 | 0.00 | 0.00 | 0.00 | 58 | 1012.5 |
| 20260506191530 | 21 | 191 | 17.7 | 49.9 | 0.00 | 0.00 | 0.00 | 58 | 1012.7 |
| 20260506191013 | 21 | 193 | 24.1 | 53.1 | 0.00 | 0.00 | 0.00 | 58 | 1012.6 |
| 20260506190518 | 21 | 129 | 24.1 | 53.1 | 0.00 | 0.00 | 0.00 | 57 | 1012.9 |
| 20260506190031 | 22 | 191 | 27.4 | 53.1 | 0.00 | 0.00 | 0.00 | 56 | 1013.1 |
| 20260506185514 | 22 | 141 | 17.7 | 49.9 | 0.00 | 0.00 | 0.00 | 55 | 1013.2 |
| 20260506185015 | 22 | 129 | 19.3 | 48.3 | 0.00 | 0.00 | 0.00 | 55 | 1012.7 |
| 20260506184532 | 22 | 165 | 17.7 | 43.5 | 0.00 | 0.00 | 0.00 | 56 | 1013.0 |
| 20260506184015 | 22 | 162 | 14.5 | 45.1 | 0.00 | 0.00 | 0.00 | 56 | 1013.1 |
| 20260506183514 | 22 | 126 | 20.9 | 45.1 | 0.00 | 0.00 | 0.00 | 56 | 1013.1 |
| 20260506183033 | 22 | 157 | 22.5 | 49.9 | 0.00 | 0.00 | 0.00 | 58 | 1013.2 |
| 20260506182514 | 21 | 143 | 24.1 | 53.1 | 0.00 | 0.00 | 0.00 | 60 | 1013.3 |
| 20260506182017 | 21 | 162 | 25.7 | 53.1 | 0.00 | 0.00 | 0.00 | 60 | 1013.5 |
| 20260506181540 | 21 | 141 | 22.5 | 46.7 | 0.00 | 0.00 | 0.00 | 60 | 1013.4 |
| 20260506181017 | 21 | 148 | 27.4 | 49.9 | 0.00 | 0.00 | 0.00 | 59 | 1013.4 |
| 20260506180519 | 22 | 137 | 20.9 | 49.9 | 0.00 | 0.00 | 0.00 | 59 | 1013.5 |
| 20260506180032 | 21 | 144 | 16.1 | 37.0 | 0.00 | 0.00 | 0.00 | 61 | 1013.4 |
| 20260506175516 | 21 | 187 | 17.7 | 40.2 | 0.00 | 0.00 | 0.00 | 60 | 1013.4 |
| 20260506175012 | 21 | 137 | 20.9 | 51.5 | 0.00 | 0.00 | 0.00 | 60 | 1013.5 |